Aérodrome :
LOGIN :

S'inscrire | Disclaimer

   EN    FR    IT 

 










Légende :    VFR   VFR Marginal   IFR   IFR Intensif   IFR Très Intensif
Visi : 
Plafond : 
>= 8 km
>= 3000ft
5 à 8 km
1000 à 3000 ft
1500m à 5 km
500 à 1000 ft
800 à 1500m
200 à 500 ft
< 800m
< 200 ft
Symboles :   Orages  Brouillard  Fortes neiges  Fortes précipitations  Vent > 20 kt
SIGMETs :   Divers  Orages  Givrage  Turbulence  Onde Orograph.  Cendres Volcan.







- Altitude de l'aérodrome : 39 ft
- Code IATA : ANR


EBAW - Anvers / Antwerpen Deurne

DERNIER METAR :
  • 161520Z 27013KT 9999 -SHRA SCT016CB SCT033 05/01 Q0995 RETS RETSGR TEMPO 28016G33KT 3000 SHRAGS

METARs EXPIRÉS :
  • 161450Z 26013KT 8000 -SHRA SCT035CB 06/01 Q0995 TEMPO 28016G29KT
  • 161420Z 27014KT 9999 SCT033CB 07/M00 Q0995 TEMPO 28016G29KT
  • 161350Z 28016KT 240V310 9999 -SHRA SCT033CB 07/00 Q0995 TEMPO 28016G29KT
  • 161320Z 28016G28KT 9999 SCT033CB 07/00 Q0995 NOSIG
  • 161250Z 28013KT 9999 SCT033CB 07/01 Q0995 TEMPO 25015G28KT

TAF TAF EBAW
Valide du 16 à 15h jusqu'au 17 à 00h UTC


161410Z 1615/1624 25016G27KT 9999 FEW015TCU SCT025
PROB40
TEMPO 1615/1624 4000 25025G38KT SHRASN SHGS BKN007 SCT015CB
Pas de NOTAMs connus pour ce terrain.
1 SIGMET publié pour la FIR Brussels (EBBU) :
 
Turbulence forte
EBBU SIGMET 03 VALID 161200/161600 EBBR
EBBU BRUSSELS FIR SEV TURB FCST W OF LINE N5046 E00244-N5115 E00344 SFC/FL050 STNR NC=



MET'MAP, la Météo Aéronautique d'un coup d'oeil ! - Copyright ORBIFLY Décembre 2007 - Disclaimer

ORBIFLY MET'MAP TEAM :

Programmation & Développement : Alexandra Zaïnal
Conception & Développement : Baudouin d'Aumeries
Co-Programmation & Développement : Marc-Olivier Méhu
Soutien technique & logistique : Manuel Goepfert

Contact : metmap@orbifly.com




SOURCES & CREDITS :

   NOAA